createdAt,value
2022-10-15T00:01:21.993Z,6.28
2022-10-15T00:04:23.795Z,5.97
2022-10-15T00:07:25.932Z,5.47
2022-10-15T00:10:28.212Z,6.60
2022-10-15T00:13:30.100Z,6.18
2022-10-15T00:16:33.320Z,6.03
2022-10-15T00:19:35.120Z,6.68
2022-10-15T00:22:37.597Z,7.40
2022-10-15T00:25:42.235Z,6.53
2022-10-15T00:28:44.440Z,6.85
2022-10-15T00:31:46.203Z,5.75
2022-10-15T00:34:48.666Z,6.47
2022-10-15T00:37:51.448Z,6.10
2022-10-15T00:40:53.144Z,6.30
2022-10-15T00:43:56.534Z,5.00
2022-10-15T00:47:14.399Z,5.68
2022-10-15T00:50:27.932Z,6.10
2022-10-15T00:53:30.331Z,5.38
2022-10-15T00:56:33.406Z,5.30
2022-10-15T00:59:39.295Z,6.18
2022-10-15T01:02:42.157Z,5.32
2022-10-15T01:05:45.979Z,5.90
2022-10-15T01:08:47.861Z,6.00
2022-10-15T01:11:52.196Z,5.70
2022-10-15T01:15:19.267Z,5.97
2022-10-15T01:18:32.379Z,6.07
2022-10-15T01:25:18.370Z,5.80
2022-10-15T01:28:44.785Z,5.38
2022-10-15T01:31:52.193Z,5.72
2022-10-15T01:35:19.090Z,5.70
2022-10-15T01:38:34.237Z,5.97
2022-10-15T01:41:42.049Z,5.38
2022-10-15T01:44:55.892Z,5.32
2022-10-15T01:48:10.666Z,5.10
2022-10-15T01:51:15.494Z,5.45
2022-10-15T01:54:20.400Z,5.28
2022-10-15T01:57:26.382Z,5.15
2022-10-15T02:00:28.671Z,5.75
2022-10-15T02:03:30.520Z,5.40
2022-10-15T02:06:37.273Z,5.47
2022-10-15T02:09:57.134Z,5.53
2022-10-15T02:13:09.839Z,5.05
2022-10-15T02:16:22.135Z,5.40
2022-10-15T02:19:39.654Z,5.10
2022-10-15T02:22:54.226Z,4.80
2022-10-15T02:25:57.473Z,4.75
2022-10-15T02:29:02.245Z,4.82
2022-10-15T02:32:07.538Z,4.60
2022-10-15T02:35:11.910Z,4.93
2022-10-15T02:38:20.784Z,4.55
2022-10-15T02:41:23.067Z,4.70
2022-10-15T02:44:24.814Z,4.82
2022-10-15T02:47:26.756Z,5.00
2022-10-15T02:50:28.596Z,4.72
2022-10-15T02:53:30.489Z,4.47
2022-10-15T02:56:32.537Z,4.50
2022-10-15T02:59:34.822Z,4.70
2022-10-15T03:02:37.483Z,4.40
2022-10-15T03:05:39.700Z,4.50
2022-10-15T03:08:44.742Z,4.35
2022-10-15T03:11:46.646Z,4.63
2022-10-15T03:14:48.536Z,5.07
2022-10-15T03:17:50.428Z,4.68
2022-10-15T03:20:57.308Z,3.92
2022-10-15T03:23:59.639Z,4.50
2022-10-15T03:27:02.407Z,4.82
2022-10-15T03:30:05.788Z,4.50
2022-10-15T03:33:09.123Z,4.22
2022-10-15T03:36:11.156Z,4.47
2022-10-15T03:39:13.592Z,4.38
2022-10-15T03:42:16.008Z,4.40
2022-10-15T03:45:20.746Z,4.53
2022-10-15T03:48:30.646Z,4.78
2022-10-15T03:51:32.865Z,5.43
2022-10-15T03:54:42.194Z,5.50
2022-10-15T03:57:45.459Z,5.40
2022-10-15T04:00:47.745Z,5.00
2022-10-15T04:03:53.339Z,5.60
2022-10-15T04:06:59.267Z,4.80
2022-10-15T04:10:02.308Z,5.10
2022-10-15T04:13:10.939Z,4.80
2022-10-15T04:16:13.165Z,4.68
2022-10-15T04:19:16.059Z,4.60
2022-10-15T04:22:21.708Z,4.72
2022-10-15T04:25:27.899Z,4.97
2022-10-15T04:28:29.896Z,5.10
2022-10-15T04:31:31.879Z,5.07
2022-10-15T04:34:34.907Z,5.63
2022-10-15T04:37:37.610Z,5.05
2022-10-15T04:40:41.191Z,4.80
2022-10-15T04:43:43.103Z,5.47
2022-10-15T04:46:46.498Z,5.80
2022-10-15T04:50:20.505Z,5.45
2022-10-15T04:53:40.921Z,6.28
2022-10-15T04:56:43.793Z,5.28
2022-10-15T04:59:45.640Z,5.65
2022-10-15T05:03:19.612Z,5.55
2022-10-15T05:06:41.687Z,5.57
2022-10-15T05:09:52.494Z,5.55
2022-10-15T05:12:56.783Z,5.22
2022-10-15T05:16:17.093Z,5.50
2022-10-15T05:19:19.172Z,5.53
2022-10-15T05:22:24.426Z,5.00
2022-10-15T05:25:30.163Z,5.70
2022-10-15T05:28:32.469Z,5.57
2022-10-15T05:31:34.779Z,9.17
2022-10-15T05:34:47.692Z,9.60
2022-10-15T05:37:51.613Z,8.30
2022-10-15T05:40:53.446Z,6.27
2022-10-15T05:43:59.440Z,5.07
2022-10-15T05:47:04.480Z,4.30
2022-10-15T05:50:09.557Z,4.53
2022-10-15T05:53:17.964Z,4.03
2022-10-15T05:56:22.073Z,4.03
2022-10-15T05:59:23.794Z,3.70
2022-10-15T06:02:25.708Z,3.33
2022-10-15T06:05:28.003Z,4.27
2022-10-15T06:08:31.017Z,3.40
2022-10-15T06:14:34.417Z,3.63
2022-10-15T06:17:36.426Z,3.00
2022-10-15T06:20:38.494Z,3.40
2022-10-15T06:23:40.367Z,6.40
2022-10-15T06:26:42.083Z,3.83
2022-10-15T06:29:43.865Z,3.10
2022-10-15T06:32:50.328Z,3.50
2022-10-15T06:35:52.145Z,3.13
2022-10-15T06:38:54.132Z,2.83
2022-10-15T06:41:55.871Z,2.72
2022-10-15T06:44:58.132Z,2.58
2022-10-15T06:47:59.944Z,3.10
2022-10-15T06:51:02.565Z,3.00
2022-10-15T06:54:04.449Z,2.85
2022-10-15T06:57:06.188Z,2.92
2022-10-15T07:00:08.408Z,2.60
2022-10-15T07:03:10.155Z,2.33
2022-10-15T07:06:11.932Z,2.50
2022-10-15T07:09:14.349Z,2.80
2022-10-15T07:12:16.471Z,3.85
2022-10-15T07:15:19.233Z,4.90
2022-10-15T07:18:21.022Z,3.70
2022-10-15T07:21:22.895Z,2.30
2022-10-15T07:24:24.609Z,2.20
2022-10-15T07:27:26.364Z,2.60
2022-10-15T07:30:28.943Z,2.03
2022-10-15T07:33:31.452Z,1.85
2022-10-15T07:36:35.911Z,2.05
2022-10-15T07:39:40.750Z,1.58
2022-10-15T07:42:43.504Z,2.10
2022-10-15T07:45:49.335Z,1.70
2022-10-15T07:48:51.159Z,1.85
2022-10-15T07:51:52.881Z,2.67
2022-10-15T07:54:54.659Z,10.70
2022-10-15T07:57:58.439Z,5.00
2022-10-15T08:01:06.747Z,2.55
2022-10-15T08:04:09.141Z,4.10
2022-10-15T08:07:12.840Z,4.90
2022-10-15T08:10:14.723Z,2.47
2022-10-15T08:13:16.511Z,1.30
2022-10-15T08:16:20.299Z,1.50
2022-10-15T08:19:32.879Z,1.20
2022-10-15T08:22:35.171Z,1.60
2022-10-15T08:25:36.941Z,1.85
2022-10-15T08:28:38.856Z,1.85
2022-10-15T08:31:40.721Z,1.03
2022-10-15T08:34:42.458Z,1.43
2022-10-15T08:37:44.206Z,1.52
2022-10-15T08:40:59.785Z,3.00
2022-10-15T08:44:02.373Z,6.15
2022-10-15T08:47:12.908Z,6.47
2022-10-15T08:50:26.607Z,10.75
2022-10-15T08:53:30.055Z,11.13
2022-10-15T08:56:36.954Z,6.55
2022-10-15T09:00:13.212Z,2.17
2022-10-15T09:03:30.833Z,1.50
2022-10-15T09:06:38.587Z,5.35
2022-10-15T09:09:43.076Z,3.50
2022-10-15T09:13:07.457Z,3.92
2022-10-15T09:16:36.209Z,3.17
2022-10-15T09:19:38.190Z,2.60
2022-10-15T09:22:42.603Z,6.40
2022-10-15T09:25:47.927Z,6.80
2022-10-15T09:29:01.894Z,3.65
2022-10-15T09:32:31.496Z,2.53
2022-10-15T09:35:45.503Z,4.20
2022-10-15T09:39:13.583Z,3.90
2022-10-15T09:42:36.269Z,3.10
2022-10-15T09:45:38.077Z,2.28
2022-10-15T09:49:21.501Z,1.85
2022-10-15T09:53:06.033Z,2.95
2022-10-15T09:56:15.968Z,3.78
2022-10-15T09:59:19.881Z,5.05
2022-10-15T10:02:25.279Z,4.40
2022-10-15T10:05:30.652Z,3.58
2022-10-15T10:08:37.566Z,6.55
2022-10-15T10:11:58.058Z,4.20
2022-10-15T10:15:26.721Z,3.47
2022-10-15T10:18:28.499Z,3.22
2022-10-15T10:21:37.249Z,3.10
2022-10-15T10:24:39.087Z,3.40
2022-10-15T10:27:45.951Z,4.80
2022-10-15T10:31:00.422Z,3.75
2022-10-15T10:34:03.253Z,3.78
2022-10-15T10:40:22.158Z,3.25
2022-10-15T10:43:29.486Z,3.40
2022-10-15T10:46:31.229Z,3.90
2022-10-15T10:49:42.667Z,3.75
2022-10-15T10:52:45.572Z,3.70
2022-10-15T10:55:48.801Z,3.80
2022-10-15T10:59:29.919Z,4.57
2022-10-15T11:02:34.113Z,3.80
2022-10-15T11:05:40.408Z,4.70
2022-10-15T11:08:42.113Z,15.13
2022-10-15T11:11:50.352Z,7.97
2022-10-15T11:15:10.470Z,6.88
2022-10-15T11:18:49.586Z,4.20
2022-10-15T11:22:02.168Z,3.45
2022-10-15T11:25:33.139Z,4.30
2022-10-15T11:28:56.162Z,3.30
2022-10-15T11:32:42.084Z,3.05
2022-10-15T11:36:16.261Z,3.10
2022-10-15T11:39:45.559Z,3.97
2022-10-15T11:42:56.769Z,3.00
2022-10-15T11:46:07.955Z,4.47
2022-10-15T11:49:29.547Z,3.30
2022-10-15T11:53:03.232Z,3.20
2022-10-15T11:56:14.914Z,2.72
2022-10-15T11:59:48.738Z,3.10
2022-10-15T12:02:52.269Z,14.45
2022-10-15T12:06:00.752Z,5.82
2022-10-15T12:09:09.753Z,3.95
2022-10-15T12:12:26.816Z,3.13
2022-10-15T12:15:56.979Z,6.90
2022-10-15T12:19:50.540Z,7.68
2022-10-15T12:22:52.292Z,13.73
2022-10-15T12:25:54.611Z,4.45
2022-10-15T12:29:00.935Z,4.38
2022-10-15T12:32:05.078Z,3.50
2022-10-15T12:35:35.175Z,3.05
2022-10-15T12:38:40.131Z,3.45
2022-10-15T12:41:45.264Z,24.77
2022-10-15T12:44:49.826Z,8.80
2022-10-15T12:47:56.115Z,23.35
2022-10-15T12:51:16.497Z,6.70
2022-10-15T12:54:37.763Z,5.13
2022-10-15T12:57:39.458Z,3.85
2022-10-15T13:00:42.621Z,4.10
2022-10-15T13:03:53.229Z,4.25
2022-10-15T13:07:03.793Z,4.18
2022-10-15T13:10:16.230Z,3.90
2022-10-15T13:13:31.137Z,4.18
2022-10-15T13:16:33.027Z,4.25
2022-10-15T13:19:39.465Z,5.00
2022-10-15T13:22:41.205Z,6.97
2022-10-15T13:25:43.200Z,4.60
2022-10-15T13:28:47.046Z,3.80
2022-10-15T13:31:50.467Z,6.18
2022-10-15T13:34:52.363Z,4.30
2022-10-15T13:37:54.146Z,4.40
2022-10-15T13:40:56.746Z,4.50
2022-10-15T13:44:02.578Z,6.78
2022-10-15T13:47:39.579Z,13.23
2022-10-15T13:50:41.321Z,25.85
2022-10-15T13:53:43.153Z,16.30
2022-10-15T13:56:53.065Z,13.93
2022-10-15T13:59:54.835Z,12.18
2022-10-15T14:03:13.407Z,7.90
2022-10-15T14:06:20.862Z,12.75
2022-10-15T14:09:33.261Z,8.25
2022-10-15T14:12:35.144Z,7.57
2022-10-15T14:15:49.473Z,9.68
2022-10-15T14:19:08.851Z,12.27
2022-10-15T14:22:18.341Z,29.02
2022-10-15T14:25:25.290Z,15.05
2022-10-15T14:28:29.572Z,8.82
2022-10-15T14:31:40.374Z,10.07
2022-10-15T14:34:42.390Z,15.15
2022-10-15T14:37:44.129Z,18.37
2022-10-15T14:41:20.961Z,21.50
2022-10-15T14:44:22.878Z,18.92
2022-10-15T14:47:27.670Z,18.27
2022-10-15T14:50:35.609Z,17.15
2022-10-15T14:53:43.607Z,14.95
2022-10-15T14:56:46.058Z,13.18
2022-10-15T14:59:48.035Z,13.32
2022-10-15T15:02:50.430Z,12.47
2022-10-15T15:05:55.133Z,17.50
2022-10-15T15:08:56.967Z,17.77
2022-10-15T15:11:58.914Z,21.00
2022-10-15T15:15:00.781Z,24.73
2022-10-15T15:18:02.573Z,26.30
2022-10-15T15:21:07.835Z,30.77
2022-10-15T15:24:09.822Z,33.00
2022-10-15T15:27:23.155Z,33.88
2022-10-15T15:30:28.137Z,34.38
2022-10-15T15:33:29.971Z,28.88
2022-10-15T15:36:31.763Z,28.45
2022-10-15T15:39:33.475Z,35.10
2022-10-15T15:42:35.258Z,37.45
2022-10-15T15:45:37.637Z,40.88
2022-10-15T15:48:39.463Z,46.17
2022-10-15T15:51:41.292Z,48.95
2022-10-15T15:54:45.127Z,48.22
2022-10-15T15:57:47.002Z,42.78
2022-10-15T16:00:48.717Z,42.30
2022-10-15T16:03:50.461Z,49.45
2022-10-15T16:06:52.245Z,51.28
2022-10-15T16:09:54.028Z,50.95
2022-10-15T16:12:56.748Z,55.55
2022-10-15T16:15:58.750Z,52.25
2022-10-15T16:19:00.551Z,47.00
2022-10-15T16:22:02.291Z,42.97
2022-10-15T16:25:04.624Z,45.35
2022-10-15T16:28:06.752Z,43.95
2022-10-15T16:31:18.855Z,50.28
2022-10-15T16:34:20.628Z,67.72
2022-10-15T16:37:22.685Z,65.47
2022-10-15T16:40:24.642Z,51.97
2022-10-15T16:43:26.740Z,48.05
2022-10-15T16:46:28.732Z,44.50
2022-10-15T16:49:30.576Z,43.28
2022-10-15T16:52:34.027Z,51.53
2022-10-15T16:55:35.919Z,46.20
2022-10-15T16:58:38.170Z,44.58
2022-10-15T17:01:39.988Z,43.00
2022-10-15T17:04:41.827Z,35.25
2022-10-15T17:07:43.582Z,28.02
2022-10-15T17:10:45.432Z,23.20
2022-10-15T17:13:49.037Z,18.52
2022-10-15T17:16:52.661Z,18.48
2022-10-15T17:19:54.710Z,18.08
2022-10-15T17:22:57.837Z,16.33
2022-10-15T17:26:14.594Z,14.85
2022-10-15T17:29:20.954Z,13.30
2022-10-15T17:32:23.075Z,15.00
2022-10-15T17:35:25.172Z,15.45
2022-10-15T17:38:26.902Z,14.45
2022-10-15T17:41:30.825Z,15.80
2022-10-15T17:44:34.219Z,19.25
2022-10-15T17:47:37.774Z,20.75
2022-10-15T17:50:44.590Z,24.40
2022-10-15T17:53:50.797Z,22.85
2022-10-15T17:56:52.536Z,17.48
2022-10-15T17:59:58.011Z,16.00
2022-10-15T18:03:00.248Z,17.10
2022-10-15T18:06:10.913Z,15.27
2022-10-15T18:09:13.786Z,17.52
2022-10-15T18:12:15.732Z,16.00
2022-10-15T18:15:17.460Z,16.60
2022-10-15T18:18:19.396Z,15.43
2022-10-15T18:21:23.777Z,16.50
2022-10-15T18:24:25.560Z,14.70
2022-10-15T18:27:27.879Z,15.82
2022-10-15T18:30:30.176Z,15.63
2022-10-15T18:33:32.421Z,17.03
2022-10-15T18:36:34.209Z,15.55
2022-10-15T18:39:36.374Z,19.13
2022-10-15T18:42:38.240Z,17.92
2022-10-15T18:45:40.474Z,17.25
2022-10-15T18:48:42.321Z,17.77
2022-10-15T18:51:46.176Z,17.10
2022-10-15T18:54:48.078Z,15.90
2022-10-15T18:57:49.790Z,15.48
2022-10-15T19:00:51.496Z,15.27
2022-10-15T19:03:55.130Z,14.07
2022-10-15T19:07:02.218Z,13.60
2022-10-15T19:10:04.385Z,14.13
2022-10-15T19:13:06.089Z,13.23
2022-10-15T19:16:08.247Z,14.88
2022-10-15T19:19:12.649Z,13.73
2022-10-15T19:22:14.771Z,13.63
2022-10-15T19:25:16.660Z,14.67
2022-10-15T19:28:19.599Z,15.52
2022-10-15T19:31:32.229Z,15.25
2022-10-15T19:34:35.414Z,18.70
2022-10-15T19:37:37.648Z,23.17
2022-10-15T19:40:44.710Z,23.08
2022-10-15T19:43:49.089Z,21.55
2022-10-15T19:46:51.730Z,23.80
2022-10-15T19:49:55.601Z,19.77
2022-10-15T19:52:57.383Z,24.80
2022-10-15T19:56:08.302Z,20.85
2022-10-15T19:59:11.376Z,19.55
2022-10-15T20:05:16.505Z,16.27
2022-10-15T20:08:18.829Z,15.43
2022-10-15T20:11:21.278Z,16.05
2022-10-15T20:14:23.016Z,16.80
2022-10-15T20:17:24.973Z,16.52
2022-10-15T20:20:27.808Z,16.43
2022-10-15T20:23:29.579Z,16.73
2022-10-15T20:26:31.397Z,16.23
2022-10-15T20:29:33.174Z,15.43
2022-10-15T20:32:38.733Z,14.45
2022-10-15T20:35:41.345Z,15.05
2022-10-15T20:38:43.646Z,13.00
2022-10-15T20:41:45.547Z,13.88
2022-10-15T20:44:47.318Z,14.68
2022-10-15T20:47:52.520Z,13.93
2022-10-15T20:50:55.697Z,14.18
2022-10-15T20:53:59.331Z,13.07
2022-10-15T20:57:01.509Z,14.10
2022-10-15T21:00:05.742Z,14.35
2022-10-15T21:03:07.575Z,14.68
2022-10-15T21:06:09.305Z,16.08
2022-10-15T21:09:11.768Z,13.57
2022-10-15T21:12:13.535Z,14.80
2022-10-15T21:15:15.264Z,14.27
2022-10-15T21:18:17.077Z,14.07
2022-10-15T21:21:18.851Z,13.93
2022-10-15T21:24:20.785Z,12.68
2022-10-15T21:27:22.792Z,12.43
2022-10-15T21:30:24.719Z,12.70
2022-10-15T21:33:26.567Z,12.95
2022-10-15T21:36:28.534Z,13.98
2022-10-15T21:39:30.319Z,14.77
2022-10-15T21:42:32.075Z,16.25
2022-10-15T21:45:33.936Z,14.50
2022-10-15T21:48:39.118Z,14.73
2022-10-15T21:51:40.959Z,15.32
2022-10-15T21:54:42.744Z,13.90
2022-10-15T21:57:44.518Z,13.77
2022-10-15T22:00:46.388Z,14.05
2022-10-15T22:03:50.257Z,13.32
2022-10-15T22:06:52.029Z,12.00
2022-10-15T22:09:53.842Z,12.80
2022-10-15T22:12:55.623Z,13.02
2022-10-15T22:16:00.111Z,11.88
2022-10-15T22:19:02.145Z,11.65
2022-10-15T22:22:03.895Z,12.60
2022-10-15T22:25:06.086Z,12.07
2022-10-15T22:28:07.810Z,13.00
2022-10-15T22:31:11.690Z,13.85
2022-10-15T22:34:14.289Z,15.30
2022-10-15T22:37:16.039Z,17.60
2022-10-15T22:40:17.791Z,15.23
2022-10-15T22:43:19.509Z,14.13
2022-10-15T22:46:21.416Z,16.38
2022-10-15T22:49:23.384Z,14.05
2022-10-15T22:52:25.443Z,15.75
2022-10-15T22:55:27.540Z,16.25
2022-10-15T22:58:31.017Z,13.23
2022-10-15T23:01:34.889Z,13.20
2022-10-15T23:04:36.811Z,12.30
2022-10-15T23:07:39.740Z,12.38
2022-10-15T23:10:41.534Z,12.02
2022-10-15T23:13:44.948Z,11.88
2022-10-15T23:16:47.854Z,11.25
2022-10-15T23:19:49.551Z,11.57
2022-10-15T23:22:51.379Z,11.18
2022-10-15T23:25:53.080Z,10.40
2022-10-15T23:28:57.639Z,10.10
2022-10-15T23:31:59.484Z,10.15
2022-10-15T23:35:01.258Z,10.82
2022-10-15T23:38:03.097Z,10.27
2022-10-15T23:41:07.698Z,9.57
2022-10-15T23:44:09.737Z,9.55
2022-10-15T23:47:11.600Z,10.73
2022-10-15T23:50:13.409Z,9.77
2022-10-15T23:53:15.146Z,9.40
2022-10-15T23:56:17.755Z,9.68
2022-10-15T23:59:21.283Z,10.35
